Time;durP1;ratioP1;P1;durP2;ratioP2;P2;SDS_P1;SDS_P2;PMS_P1;PMS_P2;Temp;Humidity;BMP_temperature;BMP_pressure;BME280_temperature;BME280_humidity;BME280_pressure;Samples;Min_cycle;Max_cycle;Signal;HPM_P1;HPM_P2
2022/01/31 00:00:46;;;;;;;2.83;1.42;;;;;;;;;;4932309;28;20491;-69
2022/01/31 00:03:11;;;;;;;3.03;1.20;;;;;;;;;;4949931;28;20512;-67
2022/01/31 00:05:37;;;;;;;4.97;1.65;;;;;;;;;;4949865;28;20502;-68
2022/01/31 00:08:02;;;;;;;5.00;1.83;;;;;;;;;;4950538;28;20348;-67
2022/01/31 00:10:29;;;;;;;8.35;2.38;;;;;;;;;;4931507;28;20375;-68
2022/01/31 00:15:21;;;;;;;4.95;1.73;;;;;;;;;;4932830;28;20467;-67
2022/01/31 00:17:46;;;;;;;3.22;1.40;;;;;;;;;;4950273;28;20352;-67
2022/01/31 00:20:12;;;;;;;6.68;2.15;;;;;;;;;;4949538;28;20415;-68
2022/01/31 00:22:38;;;;;;;3.03;1.38;;;;;;;;;;4949793;28;20371;-68
2022/01/31 00:25:03;;;;;;;5.22;1.90;;;;;;;;;;4931343;28;20395;-68
2022/01/31 00:27:29;;;;;;;4.50;1.75;;;;;;;;;;4949488;28;20388;-68
2022/01/31 00:29:54;;;;;;;9.05;1.95;;;;;;;;;;4949569;28;20379;-69
2022/01/31 00:32:19;;;;;;;6.20;1.52;;;;;;;;;;4950095;28;20108;-67
2022/01/31 00:34:45;;;;;;;7.65;2.55;;;;;;;;;;4949901;28;20054;-68
2022/01/31 00:37:10;;;;;;;4.90;1.65;;;;;;;;;;4949658;28;20455;-67
2022/01/31 00:39:36;;;;;;;9.05;2.40;;;;;;;;;;4949040;28;20345;-67
2022/01/31 00:42:04;;;;;;;9.48;3.33;;;;;;;;;;4931927;28;20421;-68
2022/01/31 00:44:40;;;;;;;3.97;1.88;;;;;;;;;;4951590;28;20445;-67
2022/01/31 00:47:16;;;;;;;6.82;1.92;;;;;;;;;;4953290;28;20168;-68
2022/01/31 00:49:49;;;;;;;5.93;1.67;;;;;;;;;;4953711;28;20055;-67
2022/01/31 00:52:14;;;;;;;6.78;2.08;;;;;;;;;;4952949;28;20368;-68
2022/01/31 00:54:40;;;;;;;7.80;2.00;;;;;;;;;;4953276;28;20384;-68
2022/01/31 00:57:05;;;;;;;5.72;2.25;;;;;;;;;;4953307;28;20042;-68
2022/01/31 00:59:30;;;;;;;8.18;2.20;;;;;;;;;;4935519;28;20440;-68
2022/01/31 01:01:56;;;;;;;5.30;1.60;;;;;;;;;;4963917;28;20395;-67
2022/01/31 01:04:21;;;;;;;4.43;1.80;;;;;;;;;;4936701;28;20429;-68
2022/01/31 01:06:46;;;;;;;7.63;2.90;;;;;;;;;;4952461;28;20436;-67
2022/01/31 01:09:12;;;;;;;6.75;1.58;;;;;;;;;;4952982;28;20435;-67
2022/01/31 01:11:37;;;;;;;8.48;2.63;;;;;;;;;;4931339;28;20432;-69
2022/01/31 01:14:03;;;;;;;6.70;2.03;;;;;;;;;;4933426;28;20496;-67
2022/01/31 01:16:29;;;;;;;7.63;2.13;;;;;;;;;;4932175;28;20405;-68
2022/01/31 01:18:54;;;;;;;6.90;1.60;;;;;;;;;;4933017;28;20441;-68
2022/01/31 01:21:20;;;;;;;6.70;2.13;;;;;;;;;;4933417;28;20125;-68
2022/01/31 01:23:45;;;;;;;6.88;2.28;;;;;;;;;;4933348;28;20437;-70
2022/01/31 01:26:11;;;;;;;6.82;2.05;;;;;;;;;;4933286;28;20330;-68
2022/01/31 01:28:36;;;;;;;5.38;2.17;;;;;;;;;;4933228;28;20333;-68
2022/01/31 01:31:01;;;;;;;3.97;1.98;;;;;;;;;;4932976;28;20117;-67
2022/01/31 01:33:27;;;;;;;10.50;2.63;;;;;;;;;;4933316;28;20361;-68
2022/01/31 01:35:54;;;;;;;5.50;1.80;;;;;;;;;;4932910;28;20330;-67
2022/01/31 01:38:23;;;;;;;9.23;2.10;;;;;;;;;;4933519;28;20437;-68
2022/01/31 01:40:48;;;;;;;4.57;1.77;;;;;;;;;;4931511;28;20053;-67
2022/01/31 01:43:15;;;;;;;8.45;2.03;;;;;;;;;;4932903;28;20469;-67
2022/01/31 01:45:42;;;;;;;5.63;1.80;;;;;;;;;;4932666;28;20361;-68
2022/01/31 01:48:08;;;;;;;4.80;1.80;;;;;;;;;;4934396;28;20357;-67
2022/01/31 01:50:36;;;;;;;5.57;1.73;;;;;;;;;;4931178;28;20385;-68
2022/01/31 01:53:01;;;;;;;7.97;1.75;;;;;;;;;;4947829;28;20468;-67
2022/01/31 01:55:27;;;;;;;8.27;2.03;;;;;;;;;;4930952;28;20441;-67
2022/01/31 01:57:52;;;;;;;4.53;1.50;;;;;;;;;;4932487;28;20504;-68
2022/01/31 02:00:24;;;;;;;11.98;2.30;;;;;;;;;;4931258;28;20472;-67
2022/01/31 02:02:50;;;;;;;8.82;2.13;;;;;;;;;;4932330;28;20499;-68
2022/01/31 02:05:16;;;;;;;4.00;1.73;;;;;;;;;;4932879;28;20433;-67
2022/01/31 02:07:41;;;;;;;9.50;2.45;;;;;;;;;;4932292;28;20402;-67
2022/01/31 02:10:07;;;;;;;7.97;2.42;;;;;;;;;;4932587;28;20338;-67
2022/01/31 02:12:47;;;;;;;6.10;2.22;;;;;;;;;;4951629;28;20504;-67
2022/01/31 02:15:13;;;;;;;3.72;1.63;;;;;;;;;;4951874;28;20468;-68
2022/01/31 02:17:39;;;;;;;8.48;2.28;;;;;;;;;;4951449;28;20475;-67
2022/01/31 02:20:07;;;;;;;5.22;2.03;;;;;;;;;;4951260;28;20344;-69
2022/01/31 02:22:32;;;;;;;5.03;2.08;;;;;;;;;;4951719;28;20080;-67
2022/01/31 02:24:58;;;;;;;8.80;2.13;;;;;;;;;;4952112;28;20445;-67
2022/01/31 02:27:29;;;;;;;9.18;2.28;;;;;;;;;;4951416;28;20344;-67
2022/01/31 02:29:54;;;;;;;3.47;1.77;;;;;;;;;;4933662;28;20042;-68
2022/01/31 02:32:22;;;;;;;11.27;2.33;;;;;;;;;;4951549;28;20436;-67
2022/01/31 02:34:47;;;;;;;5.88;1.75;;;;;;;;;;4951248;28;20440;-67
2022/01/31 02:37:12;;;;;;;5.63;2.03;;;;;;;;;;4951148;28;20425;-69
2022/01/31 02:39:38;;;;;;;6.63;1.90;;;;;;;;;;4951044;28;20080;-67
2022/01/31 02:42:03;;;;;;;4.95;1.63;;;;;;;;;;4933564;28;20405;-68
2022/01/31 02:44:29;;;;;;;5.80;1.63;;;;;;;;;;4953248;28;20409;-67
2022/01/31 02:46:55;;;;;;;5.40;1.98;;;;;;;;;;4950589;28;20376;-68
2022/01/31 02:49:24;;;;;;;6.43;2.17;;;;;;;;;;4933889;28;20416;-67
2022/01/31 02:51:55;;;;;;;;;;;;;;;;;;4949829;28;20349;-68
2022/01/31 02:54:21;;;;;;;3.03;1.60;;;;;;;;;;4934362;28;20267;-67
2022/01/31 02:56:46;;;;;;;5.70;1.75;;;;;;;;;;4950963;28;20170;-68
2022/01/31 02:59:11;;;;;;;5.88;1.77;;;;;;;;;;4950978;28;20507;-68
2022/01/31 03:01:37;;;;;;;5.75;2.15;;;;;;;;;;4933234;28;20375;-67
2022/01/31 03:04:03;;;;;;;7.50;1.92;;;;;;;;;;4965454;28;20425;-68
2022/01/31 03:06:29;;;;;;;4.20;1.50;;;;;;;;;;4950193;28;20515;-68
2022/01/31 03:08:54;;;;;;;4.75;1.83;;;;;;;;;;4949729;28;20348;-67
2022/01/31 03:11:20;;;;;;;5.88;1.83;;;;;;;;;;4950124;28;20361;-67
2022/01/31 03:13:45;;;;;;;7.47;1.83;;;;;;;;;;4932814;28;20030;-68
2022/01/31 03:16:10;;;;;;;8.25;2.03;;;;;;;;;;4951744;28;20459;-67
2022/01/31 03:18:35;;;;;;;8.27;2.00;;;;;;;;;;4950446;28;20500;-68
2022/01/31 03:21:01;;;;;;;3.47;1.55;;;;;;;;;;4950444;28;20513;-67
2022/01/31 03:23:26;;;;;;;5.35;1.35;;;;;;;;;;4950321;28;20424;-67
2022/01/31 03:25:51;;;;;;;3.75;1.55;;;;;;;;;;4951013;28;20433;-67
2022/01/31 03:28:17;;;;;;;5.38;1.90;;;;;;;;;;4950217;28;20464;-67
2022/01/31 03:30:42;;;;;;;4.80;1.70;;;;;;;;;;4950326;28;20026;-68
2022/01/31 03:33:07;;;;;;;5.40;2.00;;;;;;;;;;4932654;28;20479;-67
2022/01/31 03:35:33;;;;;;;5.80;1.98;;;;;;;;;;4950798;28;20388;-68
2022/01/31 03:37:58;;;;;;;4.85;2.10;;;;;;;;;;4949912;28;20791;-67
2022/01/31 03:40:23;;;;;;;5.80;1.42;;;;;;;;;;4950335;28;20456;-67
2022/01/31 03:42:49;;;;;;;6.13;1.75;;;;;;;;;;4932588;28;20403;-68
2022/01/31 03:45:14;;;;;;;6.13;1.63;;;;;;;;;;4950323;28;20441;-67
2022/01/31 03:47:47;;;;;;;6.60;2.40;;;;;;;;;;4949973;28;20433;-67
2022/01/31 03:50:17;;;;;;;5.65;2.00;;;;;;;;;;4949763;28;20456;-68
2022/01/31 03:52:42;;;;;;;7.65;1.40;;;;;;;;;;4932214;28;20176;-68
2022/01/31 03:55:10;;;;;;;5.35;1.25;;;;;;;;;;4949915;28;20460;-67
2022/01/31 03:57:35;;;;;;;4.25;1.65;;;;;;;;;;4932477;28;20398;-67
2022/01/31 04:00:04;;;;;;;3.95;1.45;;;;;;;;;;4949491;28;20084;-67
2022/01/31 04:02:29;;;;;;;4.47;1.95;;;;;;;;;;4951351;28;20441;-67
2022/01/31 04:04:54;;;;;;;3.92;1.60;;;;;;;;;;4949461;28;20421;-67
2022/01/31 04:07:20;;;;;;;10.30;2.63;;;;;;;;;;4932674;28;20452;-68
2022/01/31 04:09:45;;;;;;;6.03;1.83;;;;;;;;;;4949718;28;20439;-68
2022/01/31 04:12:10;;;;;;;11.30;1.98;;;;;;;;;;4949922;28;20397;-67
2022/01/31 04:14:36;;;;;;;9.65;2.45;;;;;;;;;;4950454;28;20128;-66
2022/01/31 04:17:02;;;;;;;3.70;1.25;;;;;;;;;;4932320;28;20506;-68
2022/01/31 04:19:27;;;;;;;4.82;1.77;;;;;;;;;;4954180;28;20433;-67
2022/01/31 04:21:52;;;;;;;7.57;1.40;;;;;;;;;;4955706;28;20066;-67
2022/01/31 04:24:31;;;;;;;2.83;1.30;;;;;;;;;;4938418;28;20054;-68
2022/01/31 04:27:05;;;;;;;6.07;1.92;;;;;;;;;;4940927;28;20451;-67
2022/01/31 04:29:32;;;;;;;2.78;1.58;;;;;;;;;;4956082;28;20460;-68
2022/01/31 04:31:57;;;;;;;6.70;1.88;;;;;;;;;;4956728;28;20310;-67
2022/01/31 04:34:23;;;;;;;5.90;1.45;;;;;;;;;;4956820;28;20341;-67
2022/01/31 04:36:48;;;;;;;5.63;1.83;;;;;;;;;;4956687;28;20401;-67
2022/01/31 04:39:17;;;;;;;5.60;1.13;;;;;;;;;;4970638;28;20456;-68
2022/01/31 04:41:44;;;;;;;4.15;1.58;;;;;;;;;;4956156;28;20375;-67
2022/01/31 04:44:10;;;;;;;1.83;1.40;;;;;;;;;;4938404;28;20122;-68
2022/01/31 04:46:35;;;;;;;4.13;1.42;;;;;;;;;;4955576;28;20380;-68
2022/01/31 04:49:01;;;;;;;5.22;1.58;;;;;;;;;;4955874;28;20100;-67
2022/01/31 04:51:26;;;;;;;4.18;1.65;;;;;;;;;;4955537;28;20115;-67
2022/01/31 04:53:51;;;;;;;6.15;1.90;;;;;;;;;;4955908;28;20383;-67
2022/01/31 04:56:17;;;;;;;4.72;1.40;;;;;;;;;;4955357;28;20404;-67
2022/01/31 04:58:42;;;;;;;8.48;3.00;;;;;;;;;;4957490;28;20332;-69
2022/01/31 05:01:08;;;;;;;5.75;1.30;;;;;;;;;;4955654;28;20415;-67
2022/01/31 05:03:33;;;;;;;5.35;1.42;;;;;;;;;;4955542;28;20400;-67
2022/01/31 05:06:00;;;;;;;6.18;1.60;;;;;;;;;;4938594;28;20030;-68
2022/01/31 05:08:27;;;;;;;4.93;1.52;;;;;;;;;;4938227;28;20433;-67
2022/01/31 05:10:53;;;;;;;7.90;1.52;;;;;;;;;;4934707;28;20354;-67
2022/01/31 05:13:18;;;;;;;6.60;1.50;;;;;;;;;;4937252;28;20354;-67
2022/01/31 05:15:44;;;;;;;5.78;1.88;;;;;;;;;;4934666;28;20026;-68
2022/01/31 05:18:10;;;;;;;3.33;1.00;;;;;;;;;;4937050;28;20375;-68
2022/01/31 05:20:35;;;;;;;9.88;2.35;;;;;;;;;;4936910;28;20069;-67
2022/01/31 05:23:01;;;;;;;4.25;1.23;;;;;;;;;;4936830;28;20418;-67
2022/01/31 05:25:26;;;;;;;3.97;1.52;;;;;;;;;;4934797;28;20412;-67
2022/01/31 05:27:52;;;;;;;9.63;2.03;;;;;;;;;;4935978;28;20465;-67
2022/01/31 05:30:17;;;;;;;6.13;1.90;;;;;;;;;;4932549;28;20384;-67
2022/01/31 05:32:43;;;;;;;7.75;1.50;;;;;;;;;;4931782;28;20457;-68
2022/01/31 05:35:09;;;;;;;10.75;1.95;;;;;;;;;;4931603;28;20053;-67
2022/01/31 05:37:35;;;;;;;7.72;1.75;;;;;;;;;;4932547;28;20441;-66
2022/01/31 05:40:02;;;;;;;8.65;2.75;;;;;;;;;;4932838;28;20385;-67
2022/01/31 05:42:27;;;;;;;8.20;2.03;;;;;;;;;;4934521;28;20349;-68
2022/01/31 05:44:52;;;;;;;5.47;1.20;;;;;;;;;;4932863;28;20322;-67
2022/01/31 05:47:18;;;;;;;8.25;1.88;;;;;;;;;;4934147;28;20396;-67
2022/01/31 05:49:43;;;;;;;1.50;1.10;;;;;;;;;;4933353;28;20350;-67
2022/01/31 05:52:11;;;;;;;3.47;1.50;;;;;;;;;;4932827;28;20372;-67
2022/01/31 05:54:38;;;;;;;6.05;1.77;;;;;;;;;;4932485;28;20394;-68
2022/01/31 05:57:04;;;;;;;5.95;1.77;;;;;;;;;;4931321;28;20322;-67
2022/01/31 05:59:30;;;;;;;6.53;1.85;;;;;;;;;;4947810;28;20456;-67
2022/01/31 06:01:57;;;;;;;5.95;1.80;;;;;;;;;;4932803;28;20468;-67
2022/01/31 06:04:22;;;;;;;4.78;1.98;;;;;;;;;;4931391;28;20474;-67
2022/01/31 06:06:48;;;;;;;4.45;1.90;;;;;;;;;;4931357;28;20408;-67
2022/01/31 06:09:13;;;;;;;6.95;2.22;;;;;;;;;;4930820;28;20038;-67
2022/01/31 06:11:38;;;;;;;8.50;2.20;;;;;;;;;;4943580;28;20126;-66
2022/01/31 06:14:07;;;;;;;5.10;2.47;;;;;;;;;;4934733;28;20472;-66
2022/01/31 06:16:32;;;;;;;10.07;1.88;;;;;;;;;;4951262;28;20499;-67
2022/01/31 06:18:58;;;;;;;3.85;1.73;;;;;;;;;;4951519;28;20575;-67
2022/01/31 06:21:23;;;;;;;8.20;1.95;;;;;;;;;;4951541;28;20435;-67
2022/01/31 06:23:48;;;;;;;5.90;1.85;;;;;;;;;;4952796;28;20438;-66
2022/01/31 06:26:14;;;;;;;7.60;1.85;;;;;;;;;;4933930;28;20467;-67
2022/01/31 06:28:40;;;;;;;5.18;1.80;;;;;;;;;;4966799;28;21027;-67
2022/01/31 06:31:05;;;;;;;7.10;2.30;;;;;;;;;;4951315;28;20707;-67
2022/01/31 06:33:32;;;;;;;2.50;1.02;;;;;;;;;;4951411;28;20053;-67
2022/01/31 06:35:58;;;;;;;3.65;1.67;;;;;;;;;;4933286;28;20328;-67
2022/01/31 06:38:23;;;;;;;3.33;2.03;;;;;;;;;;4951287;28;20322;-67
2022/01/31 06:40:48;;;;;;;8.35;1.65;;;;;;;;;;4933523;28;20314;-67
2022/01/31 06:43:14;;;;;;;6.03;1.83;;;;;;;;;;4933361;28;20456;-68
2022/01/31 06:45:39;;;;;;;6.78;2.20;;;;;;;;;;4917442;28;20475;-68
2022/01/31 06:48:05;;;;;;;7.32;2.15;;;;;;;;;;4952847;28;20306;-68
2022/01/31 06:50:30;;;;;;;4.78;1.67;;;;;;;;;;4951055;28;20328;-66
2022/01/31 06:52:56;;;;;;;4.93;2.10;;;;;;;;;;4950790;28;20084;-69
2022/01/31 06:55:23;;;;;;;5.72;2.60;;;;;;;;;;4951168;28;20034;-70
2022/01/31 06:57:49;;;;;;;4.82;1.67;;;;;;;;;;4951730;28;20448;-67
2022/01/31 07:00:17;;;;;;;5.40;2.10;;;;;;;;;;4933992;28;20421;-67
2022/01/31 07:02:43;;;;;;;5.72;2.17;;;;;;;;;;4933444;28;20448;-67
2022/01/31 07:05:08;;;;;;;3.40;1.35;;;;;;;;;;4951457;28;20464;-66
2022/01/31 07:07:33;;;;;;;3.67;1.55;;;;;;;;;;4933222;28;20029;-66
2022/01/31 07:10:02;;;;;;;4.47;2.17;;;;;;;;;;4950786;28;20029;-69
2022/01/31 07:12:33;;;;;;;8.07;2.20;;;;;;;;;;4929250;28;20338;-68
2022/01/31 07:15:02;;;;;;;6.28;2.00;;;;;;;;;;4945406;28;20393;-67
2022/01/31 07:17:28;;;;;;;10.57;2.50;;;;;;;;;;4930830;28;20049;-67
2022/01/31 07:19:54;;;;;;;5.15;1.58;;;;;;;;;;4930136;28;20026;-67
2022/01/31 07:22:22;;;;;;;4.75;1.60;;;;;;;;;;4914788;28;20314;-67
2022/01/31 07:25:00;;;;;;;9.17;2.57;;;;;;;;;;4931096;28;20459;-68
2022/01/31 07:27:25;;;;;;;6.22;2.08;;;;;;;;;;4931293;28;20277;-66
2022/01/31 07:29:50;;;;;;;5.13;1.67;;;;;;;;;;4931089;28;20437;-67
2022/01/31 07:32:16;;;;;;;6.82;2.33;;;;;;;;;;4931689;28;20521;-66
2022/01/31 07:34:42;;;;;;;8.20;1.85;;;;;;;;;;4930521;28;20057;-67
2022/01/31 07:37:11;;;;;;;9.13;2.25;;;;;;;;;;4930780;28;20030;-67
2022/01/31 07:39:41;;;;;;;4.90;1.90;;;;;;;;;;4929061;28;20057;-67
2022/01/31 07:42:07;;;;;;;9.07;2.28;;;;;;;;;;4930194;28;20038;-67
2022/01/31 07:44:32;;;;;;;4.88;1.92;;;;;;;;;;4945100;28;20516;-68
2022/01/31 07:46:58;;;;;;;3.67;1.67;;;;;;;;;;4931243;28;20445;-67
2022/01/31 07:49:23;;;;;;;6.65;2.15;;;;;;;;;;4930694;28;20381;-68
2022/01/31 07:51:49;;;;;;;5.38;1.55;;;;;;;;;;4929889;28;20441;-67
2022/01/31 07:54:15;;;;;;;9.60;2.67;;;;;;;;;;4928892;28;20441;-67
2022/01/31 07:56:40;;;;;;;9.35;2.40;;;;;;;;;;4930657;28;20479;-68
2022/01/31 07:59:05;;;;;;;10.63;2.50;;;;;;;;;;4931380;28;20603;-67
2022/01/31 08:01:30;;;;;;;5.32;2.00;;;;;;;;;;4929590;28;20320;-68
2022/01/31 08:03:56;;;;;;;5.47;2.03;;;;;;;;;;4928748;28;20337;-67
2022/01/31 08:06:21;;;;;;;4.43;1.60;;;;;;;;;;4931220;28;20361;-67
2022/01/31 08:08:46;;;;;;;11.18;2.40;;;;;;;;;;4929577;28;20356;-67
2022/01/31 08:11:14;;;;;;;4.63;2.17;;;;;;;;;;4937322;28;20393;-67
2022/01/31 08:13:39;;;;;;;10.50;2.55;;;;;;;;;;4949811;28;20491;-69
2022/01/31 08:18:35;;;;;;;7.25;2.33;;;;;;;;;;4932880;28;20376;-67
2022/01/31 08:21:03;;;;;;;6.10;2.10;;;;;;;;;;4932697;28;20401;-67
2022/01/31 08:23:29;;;;;;;11.32;3.28;;;;;;;;;;4950258;28;20412;-67
2022/01/31 08:25:54;;;;;;;5.38;1.95;;;;;;;;;;4950985;28;20400;-67
2022/01/31 08:28:28;;;;;;;5.60;2.13;;;;;;;;;;4950300;28;20037;-67
2022/01/31 08:31:02;;;;;;;4.68;1.95;;;;;;;;;;4950195;28;20154;-68
2022/01/31 08:33:42;;;;;;;8.50;2.30;;;;;;;;;;4949465;28;20030;-67
2022/01/31 08:36:08;;;;;;;9.13;2.47;;;;;;;;;;4949387;28;20449;-67
2022/01/31 08:38:35;;;;;;;4.43;1.85;;;;;;;;;;4947785;28;20337;-67
2022/01/31 08:41:01;;;;;;;7.63;2.03;;;;;;;;;;4949197;28;20396;-68
2022/01/31 08:43:27;;;;;;;4.60;2.00;;;;;;;;;;4932222;28;20409;-67
2022/01/31 08:45:56;;;;;;;9.50;2.42;;;;;;;;;;4931799;28;20029;-67
2022/01/31 08:48:23;;;;;;;8.50;2.65;;;;;;;;;;4949429;28;20467;-68
2022/01/31 08:50:49;;;;;;;5.05;1.88;;;;;;;;;;4949334;28;20480;-68
2022/01/31 08:53:14;;;;;;;4.10;1.65;;;;;;;;;;4949600;28;20509;-68
2022/01/31 08:55:49;;;;;;;9.85;2.60;;;;;;;;;;4932335;28;20061;-67
2022/01/31 08:58:14;;;;;;;7.43;2.30;;;;;;;;;;4950581;28;20435;-67
2022/01/31 09:00:40;;;;;;;11.38;3.10;;;;;;;;;;4932622;28;20030;-67
2022/01/31 09:05:37;;;;;;;8.55;2.72;;;;;;;;;;4933379;28;20310;-68
2022/01/31 09:08:03;;;;;;;6.30;2.58;;;;;;;;;;4953110;28;20384;-68
2022/01/31 09:10:28;;;;;;;8.65;2.10;;;;;;;;;;4935178;28;20352;-67
2022/01/31 09:12:54;;;;;;;9.65;2.60;;;;;;;;;;4953071;28;20376;-67
2022/01/31 09:15:19;;;;;;;8.77;2.72;;;;;;;;;;4967734;28;20080;-68
2022/01/31 09:17:45;;;;;;;8.38;2.33;;;;;;;;;;4934856;28;20347;-67
2022/01/31 09:20:10;;;;;;;6.85;2.47;;;;;;;;;;4952345;28;20108;-68
2022/01/31 09:22:36;;;;;;;10.30;3.03;;;;;;;;;;4952722;28;20475;-68
2022/01/31 09:25:02;;;;;;;7.75;2.03;;;;;;;;;;4952723;28;20025;-68
2022/01/31 09:27:28;;;;;;;9.48;2.95;;;;;;;;;;4953675;28;20313;-68
2022/01/31 09:29:54;;;;;;;5.38;2.38;;;;;;;;;;4952685;28;20499;-68
2022/01/31 09:32:23;;;;;;;10.90;3.05;;;;;;;;;;4935192;28;20337;-68
2022/01/31 09:34:49;;;;;;;4.85;2.00;;;;;;;;;;4953583;28;20340;-68
2022/01/31 09:37:14;;;;;;;5.63;2.35;;;;;;;;;;4918510;28;20390;-68
2022/01/31 09:39:42;;;;;;;6.85;2.42;;;;;;;;;;4954056;28;20341;-67
2022/01/31 09:42:13;;;;;;;6.57;2.20;;;;;;;;;;4935716;28;20367;-67
2022/01/31 09:48:32;;;;;;;7.80;3.35;;;;;;;;;;4870685;28;20344;-68
2022/01/31 09:50:19;;;;;;;8.38;2.60;;;;;;;;;;4952904;28;20404;-68
2022/01/31 09:52:44;;;;;;;6.68;2.30;;;;;;;;;;4934783;28;20502;-68
2022/01/31 09:55:10;;;;;;;5.97;2.65;;;;;;;;;;4951884;28;20376;-68
2022/01/31 09:57:35;;;;;;;8.55;2.40;;;;;;;;;;4951863;28;20536;-67
2022/01/31 10:00:01;;;;;;;12.00;3.35;;;;;;;;;;4951842;28;20334;-68
2022/01/31 10:02:26;;;;;;;13.40;3.08;;;;;;;;;;4934361;28;20423;-67
2022/01/31 10:04:51;;;;;;;11.75;3.40;;;;;;;;;;4934235;28;20397;-67
2022/01/31 10:07:17;;;;;;;7.18;3.08;;;;;;;;;;4951680;28;20594;-68
2022/01/31 10:09:47;;;;;;;9.07;3.35;;;;;;;;;;4951851;28;20326;-67
2022/01/31 10:16:24;;;;;;;8.25;3.22;;;;;;;;;;4930656;28;20455;-68
2022/01/31 10:18:01;;;;;;;8.93;2.55;;;;;;;;;;4932190;28;20061;-67
2022/01/31 10:20:32;;;;;;;10.18;3.65;;;;;;;;;;4931009;28;20096;-68
2022/01/31 10:23:08;;;;;;;11.23;3.42;;;;;;;;;;4932364;28;20023;-67
2022/01/31 10:25:33;;;;;;;9.60;3.42;;;;;;;;;;4931134;28;20326;-68
2022/01/31 10:27:59;;;;;;;12.20;3.80;;;;;;;;;;4932162;28;20421;-67
2022/01/31 10:30:27;;;;;;;15.25;4.05;;;;;;;;;;4930709;28;20409;-67
2022/01/31 10:32:54;;;;;;;6.00;3.05;;;;;;;;;;4931565;28;20501;-68
2022/01/31 10:35:22;;;;;;;16.05;4.57;;;;;;;;;;4930057;28;20461;-68
2022/01/31 10:37:49;;;;;;;11.13;3.70;;;;;;;;;;4930671;28;20330;-68
2022/01/31 10:45:46;;;;;;;12.20;4.15;;;;;;;;;;4931951;28;20398;-68
2022/01/31 10:54:12;;;;;;;8.30;3.50;;;;;;;;;;4931604;28;20399;-67
2022/01/31 10:56:41;;;;;;;9.63;3.20;;;;;;;;;;4931566;28;20397;-67
2022/01/31 10:59:09;;;;;;;10.17;3.73;;;;;;;;;;4930242;28;20445;-67
2022/01/31 11:01:37;;;;;;;13.07;3.75;;;;;;;;;;4930609;28;20288;-68
2022/01/31 11:04:05;;;;;;;13.95;3.72;;;;;;;;;;4929905;28;20425;-68
2022/01/31 11:06:31;;;;;;;9.35;4.35;;;;;;;;;;4931232;28;20295;-67
2022/01/31 11:09:03;;;;;;;12.13;4.05;;;;;;;;;;4946060;28;20038;-68
2022/01/31 11:11:30;;;;;;;10.80;4.70;;;;;;;;;;4940319;28;20495;-67
2022/01/31 11:13:56;;;;;;;12.88;4.35;;;;;;;;;;4950843;28;20065;-68
2022/01/31 11:16:22;;;;;;;15.20;5.22;;;;;;;;;;4933009;28;20061;-68
2022/01/31 11:18:47;;;;;;;12.13;4.63;;;;;;;;;;4932901;28;20437;-68
2022/01/31 11:21:13;;;;;;;16.77;4.15;;;;;;;;;;4950647;28;20518;-68
2022/01/31 11:23:43;;;;;;;13.57;4.70;;;;;;;;;;4950675;28;20455;-68
2022/01/31 11:26:11;;;;;;;13.80;4.57;;;;;;;;;;4964808;28;20045;-70
2022/01/31 11:28:40;;;;;;;12.65;3.90;;;;;;;;;;4931542;28;20479;-68
2022/01/31 11:31:06;;;;;;;16.58;5.57;;;;;;;;;;4948043;28;20345;-68
2022/01/31 11:33:34;;;;;;;14.65;5.20;;;;;;;;;;4929906;28;20448;-67
2022/01/31 11:36:00;;;;;;;16.67;5.63;;;;;;;;;;4948118;28;20037;-68
2022/01/31 11:38:25;;;;;;;12.55;5.80;;;;;;;;;;4947298;28;20483;-68
2022/01/31 11:40:51;;;;;;;17.23;5.05;;;;;;;;;;4930949;28;20437;-67
2022/01/31 11:43:17;;;;;;;22.80;6.15;;;;;;;;;;4931641;28;20318;-68
2022/01/31 11:45:45;;;;;;;15.32;4.82;;;;;;;;;;4932603;28;20431;-67
2022/01/31 11:48:31;;;;;;;14.77;4.15;;;;;;;;;;4933181;28;20422;-69
2022/01/31 11:50:59;;;;;;;14.15;4.95;;;;;;;;;;4932380;28;20407;-68
2022/01/31 11:53:33;;;;;;;8.88;4.05;;;;;;;;;;4950008;28;20436;-69
2022/01/31 11:56:07;;;;;;;13.85;5.38;;;;;;;;;;4932302;28;20344;-67
2022/01/31 11:58:35;;;;;;;16.13;5.43;;;;;;;;;;4950600;28;20314;-67
2022/01/31 12:01:02;;;;;;;15.17;5.47;;;;;;;;;;4965247;28;20452;-68
2022/01/31 12:03:27;;;;;;;15.32;5.45;;;;;;;;;;4964759;28;20367;-68
2022/01/31 12:05:53;;;;;;;14.60;4.90;;;;;;;;;;4916278;28;20022;-68
2022/01/31 12:08:21;;;;;;;19.88;5.93;;;;;;;;;;4949822;28;20329;-68
2022/01/31 12:11:14;;;;;;;21.67;6.55;;;;;;;;;;4963906;28;20464;-68
2022/01/31 12:13:52;;;;;;;13.80;5.82;;;;;;;;;;4933147;28;20384;-67
2022/01/31 12:16:50;;;;;;;14.00;5.95;;;;;;;;;;4932609;28;20437;-68
2022/01/31 12:22:05;;;;;;;15.85;5.45;;;;;;;;;;4964136;28;20423;-69
2022/01/31 12:24:42;;;;;;;20.45;6.95;;;;;;;;;;4965158;28;20333;-67
2022/01/31 12:27:14;;;;;;;15.55;5.90;;;;;;;;;;4930555;28;20379;-68
2022/01/31 12:29:50;;;;;;;17.88;6.55;;;;;;;;;;4961949;28;20022;-67
2022/01/31 12:32:19;;;;;;;23.58;7.75;;;;;;;;;;4949563;28;20433;-67
2022/01/31 12:34:58;;;;;;;16.40;6.03;;;;;;;;;;4950535;28;20482;-68
2022/01/31 12:37:31;;;;;;;17.65;6.25;;;;;;;;;;4932158;28;20471;-68
2022/01/31 12:40:06;;;;;;;17.25;6.03;;;;;;;;;;4933678;28;20030;-68
2022/01/31 12:45:11;;;;;;;15.15;5.68;;;;;;;;;;4953654;28;20364;-67
2022/01/31 12:47:37;;;;;;;15.82;6.20;;;;;;;;;;4953632;28;20029;-67
2022/01/31 12:50:21;;;;;;;20.60;6.82;;;;;;;;;;4953252;28;20465;-68
2022/01/31 12:52:46;;;;;;;18.17;6.10;;;;;;;;;;4954675;28;20444;-70
2022/01/31 12:55:12;;;;;;;16.00;6.80;;;;;;;;;;4968026;28;20484;-67
2022/01/31 12:57:48;;;;;;;12.43;5.55;;;;;;;;;;4952634;28;20575;-68
2022/01/31 13:00:14;;;;;;;19.67;6.68;;;;;;;;;;4935698;28;20345;-67
2022/01/31 13:02:52;;;;;;;19.20;6.50;;;;;;;;;;4952749;28;20034;-68
2022/01/31 13:05:34;;;;;;;22.23;7.10;;;;;;;;;;4935147;28;20117;-68
2022/01/31 13:08:00;;;;;;;15.25;6.13;;;;;;;;;;4953001;28;20603;-67
2022/01/31 13:10:35;;;;;;;14.60;6.15;;;;;;;;;;4934643;28;20107;-67
2022/01/31 13:13:01;;;;;;;15.73;5.35;;;;;;;;;;4953318;28;20367;-67
2022/01/31 13:15:27;;;;;;;17.67;6.25;;;;;;;;;;4952311;28;20317;-67
2022/01/31 13:18:06;;;;;;;29.65;7.63;;;;;;;;;;4952942;28;20349;-68
2022/01/31 13:20:32;;;;;;;18.77;5.85;;;;;;;;;;4952721;28;20478;-68
2022/01/31 13:22:58;;;;;;;20.05;6.88;;;;;;;;;;4953714;28;20332;-68
2022/01/31 13:25:24;;;;;;;23.45;7.22;;;;;;;;;;4935155;28;20310;-67
2022/01/31 13:27:49;;;;;;;17.13;6.05;;;;;;;;;;4952699;28;20424;-67
2022/01/31 13:30:23;;;;;;;17.90;6.30;;;;;;;;;;4935065;28;20459;-69
2022/01/31 13:32:49;;;;;;;17.27;5.85;;;;;;;;;;4934762;28;20340;-68
2022/01/31 13:35:17;;;;;;;16.08;5.65;;;;;;;;;;4952561;28;20349;-67
2022/01/31 13:37:52;;;;;;;16.65;6.22;;;;;;;;;;4952443;28;20384;-68
2022/01/31 13:40:26;;;;;;;20.45;7.38;;;;;;;;;;4935233;28;20033;-68
2022/01/31 13:42:58;;;;;;;20.50;6.72;;;;;;;;;;4934863;28;20356;-67
2022/01/31 13:45:32;;;;;;;18.17;6.55;;;;;;;;;;4952542;28;20433;-67
2022/01/31 13:48:04;;;;;;;14.57;4.82;;;;;;;;;;4952079;28;20022;-68
2022/01/31 13:50:42;;;;;;;20.73;7.32;;;;;;;;;;4919336;28;20333;-67
2022/01/31 13:53:10;;;;;;;14.68;5.63;;;;;;;;;;4966712;28;20340;-67
2022/01/31 13:55:41;;;;;;;16.75;6.07;;;;;;;;;;4952125;28;20462;-67
2022/01/31 13:58:07;;;;;;;17.27;7.53;;;;;;;;;;4952263;28;20479;-68
2022/01/31 14:00:34;;;;;;;18.48;5.43;;;;;;;;;;4952475;28;20437;-69
2022/01/31 14:03:08;;;;;;;15.65;6.00;;;;;;;;;;4952155;28;20317;-68
2022/01/31 14:05:37;;;;;;;13.80;5.65;;;;;;;;;;4934320;28;20389;-67
2022/01/31 14:08:10;;;;;;;18.95;6.35;;;;;;;;;;4934998;28;20475;-67
2022/01/31 14:10:36;;;;;;;15.80;5.95;;;;;;;;;;4951572;28;20479;-68
2022/01/31 14:13:04;;;;;;;19.08;6.53;;;;;;;;;;4934237;28;20432;-67
2022/01/31 14:15:42;;;;;;;17.27;5.80;;;;;;;;;;4966983;28;20030;-68
2022/01/31 14:18:09;;;;;;;13.77;5.55;;;;;;;;;;4934281;28;20428;-68
2022/01/31 14:20:35;;;;;;;16.30;6.18;;;;;;;;;;4952388;28;20049;-67
2022/01/31 14:23:02;;;;;;;19.60;5.80;;;;;;;;;;4949957;28;20511;-68
2022/01/31 14:25:38;;;;;;;14.23;5.85;;;;;;;;;;4965998;28;20456;-67
2022/01/31 14:28:05;;;;;;;20.15;5.95;;;;;;;;;;4934073;28;20421;-68
2022/01/31 14:30:31;;;;;;;15.68;5.63;;;;;;;;;;4933982;28;20364;-67
2022/01/31 14:32:59;;;;;;;16.08;5.40;;;;;;;;;;4934095;28;20026;-68
2022/01/31 14:35:24;;;;;;;17.43;7.10;;;;;;;;;;4933749;28;20558;-67
2022/01/31 14:37:52;;;;;;;17.17;5.38;;;;;;;;;;4951476;28;20315;-68
2022/01/31 14:40:39;;;;;;;14.70;6.20;;;;;;;;;;4965957;28;20396;-68
2022/01/31 14:47:13;;;;;;;17.42;6.80;;;;;;;;;;4951261;28;20421;-67
2022/01/31 14:48:43;;;;;;;18.45;6.53;;;;;;;;;;4951821;28;20356;-68
2022/01/31 14:51:22;;;;;;;19.95;6.40;;;;;;;;;;4950975;28;20431;-67
2022/01/31 14:53:59;;;;;;;17.05;6.65;;;;;;;;;;4951651;28;20084;-68
2022/01/31 14:56:25;;;;;;;13.35;5.15;;;;;;;;;;4965885;28;20421;-68
2022/01/31 14:58:50;;;;;;;16.45;6.65;;;;;;;;;;4933844;28;20468;-67
2022/01/31 15:01:15;;;;;;;18.63;6.60;;;;;;;;;;4917161;28;20048;-67
2022/01/31 15:03:41;;;;;;;16.98;6.63;;;;;;;;;;4951177;28;20412;-68
2022/01/31 15:06:06;;;;;;;21.08;6.95;;;;;;;;;;4950724;28;20445;-68
2022/01/31 15:08:31;;;;;;;14.27;5.80;;;;;;;;;;4950777;28;20495;-67
2022/01/31 15:10:57;;;;;;;20.75;7.07;;;;;;;;;;4965081;28;20372;-67
2022/01/31 15:13:22;;;;;;;19.80;6.30;;;;;;;;;;4933171;28;20532;-68